createdAt,value
2016-09-04T00:00:57.235Z,0
2016-09-04T00:01:56.515Z,0
2016-09-04T00:02:56.514Z,0
2016-09-04T00:03:55.053Z,0
2016-09-04T00:04:56.420Z,0
2016-09-04T00:05:55.685Z,0
2016-09-04T00:06:57.043Z,0
2016-09-04T00:07:57.023Z,0
2016-09-04T00:08:56.288Z,0
2016-09-04T00:09:56.951Z,0
2016-09-04T00:10:56.224Z,0
2016-09-04T00:11:56.888Z,0
2016-09-04T00:12:56.857Z,0
2016-09-04T00:13:56.119Z,0
2016-09-04T00:14:56.089Z,0
2016-09-04T00:15:55.367Z,0
2016-09-04T00:16:56.723Z,0
2016-09-04T00:17:55.993Z,0
2016-09-04T00:18:55.965Z,0
2016-09-04T00:19:55.236Z,0
2016-09-04T00:20:55.207Z,0
2016-09-04T00:21:55.862Z,0
2016-09-04T00:22:55.137Z,0
2016-09-04T00:23:55.803Z,0
2016-09-04T00:24:55.773Z,0
2016-09-04T00:25:56.429Z,0
2016-09-04T00:26:55.699Z,0
2016-09-04T00:27:55.669Z,0
2016-09-04T00:28:56.355Z,0
2016-09-04T00:29:55.606Z,0
2016-09-04T00:30:56.270Z,0
2016-09-04T00:31:54.842Z,0
2016-09-04T00:32:56.211Z,0
2016-09-04T00:33:54.774Z,0
2016-09-04T00:34:55.440Z,0
2016-09-04T00:35:55.406Z,0
2016-09-04T00:36:55.380Z,0
2016-09-04T00:37:55.351Z,0
2016-09-04T00:38:55.322Z,0
2016-09-04T00:39:55.982Z,0
2016-09-04T00:40:55.247Z,0
2016-09-04T00:41:55.905Z,0
2016-09-04T00:42:54.478Z,0
2016-09-04T00:43:55.844Z,0
2016-09-04T00:44:55.821Z,0
2016-09-04T00:45:55.091Z,0
2016-09-04T00:46:55.062Z,0
2016-09-04T00:47:55.022Z,0
2016-09-04T00:48:55.675Z,0
2016-09-04T00:49:54.947Z,0
2016-09-04T00:50:54.920Z,0
2016-09-04T00:51:54.890Z,0
2016-09-04T00:52:55.543Z,0
2016-09-04T00:53:54.833Z,0
2016-09-04T00:54:55.485Z,0
2016-09-04T00:55:55.455Z,0
2016-09-04T00:56:55.420Z,0
2016-09-04T00:57:55.375Z,0
2016-09-04T00:58:54.656Z,0
2016-09-04T00:59:53.925Z,0
2016-09-04T01:00:55.283Z,0
2016-09-04T01:01:55.258Z,0
2016-09-04T01:02:55.226Z,0
2016-09-04T01:03:55.192Z,0
2016-09-04T01:04:54.465Z,0
2016-09-04T01:05:55.117Z,0
2016-09-04T01:06:55.081Z,0
2016-09-04T01:07:54.370Z,0
2016-09-04T01:08:55.025Z,0
2016-09-04T01:09:54.991Z,0
2016-09-04T01:10:54.263Z,0
2016-09-04T01:11:54.224Z,0
2016-09-04T01:12:54.902Z,0
2016-09-04T01:13:53.467Z,0
2016-09-04T01:14:54.821Z,0
2016-09-04T01:15:54.795Z,0
2016-09-04T01:16:54.762Z,0
2016-09-04T01:17:53.334Z,0
2016-09-04T01:18:54.726Z,0
2016-09-04T01:19:53.271Z,0
2016-09-04T01:20:54.633Z,0
2016-09-04T01:21:53.206Z,0
2016-09-04T01:22:54.558Z,0
2016-09-04T01:23:53.838Z,0
2016-09-04T01:24:53.797Z,0
2016-09-04T01:25:54.457Z,0
2016-09-04T01:26:52.344Z,0
2016-09-04T01:27:53.705Z,0
2016-09-04T01:28:54.376Z,0
2016-09-04T01:29:54.333Z,0
2016-09-04T01:30:53.606Z,0
2016-09-04T01:31:53.569Z,0
2016-09-04T01:32:54.247Z,0
2016-09-04T01:33:54.200Z,0
2016-09-04T01:34:54.167Z,0
2016-09-04T01:35:54.131Z,0
2016-09-04T01:36:53.401Z,0
2016-09-04T01:37:54.067Z,0
2016-09-04T01:38:54.050Z,0
2016-09-04T01:39:53.999Z,0
2016-09-04T01:40:52.579Z,0
2016-09-04T01:41:53.938Z,0
2016-09-04T01:42:53.211Z,0
2016-09-04T01:43:53.878Z,0
2016-09-04T01:44:53.140Z,0
2016-09-04T01:45:53.109Z,0
2016-09-04T01:46:53.763Z,0
2016-09-04T01:47:53.737Z,0
2016-09-04T01:48:53.706Z,0
2016-09-04T01:49:52.992Z,0
2016-09-04T01:50:53.636Z,0
2016-09-04T01:51:53.613Z,0
2016-09-04T01:52:53.574Z,0
2016-09-04T01:53:53.555Z,0
2016-09-04T01:54:52.813Z,0
2016-09-04T01:55:52.780Z,0
2016-09-04T01:56:53.446Z,0
2016-09-04T01:57:52.707Z,0
2016-09-04T01:58:53.376Z,0
2016-09-04T01:59:52.659Z,0
2016-09-04T02:00:53.306Z,0
2016-09-04T02:01:53.287Z,0
2016-09-04T02:02:51.862Z,0
2016-09-04T02:03:52.510Z,0
2016-09-04T02:04:52.483Z,0
2016-09-04T02:05:51.759Z,0
2016-09-04T02:06:53.107Z,0
2016-09-04T02:07:52.385Z,0
2016-09-04T02:08:52.352Z,0
2016-09-04T02:09:53.011Z,0
2016-09-04T02:10:52.981Z,0
2016-09-04T02:11:52.952Z,0
2016-09-04T02:12:52.927Z,0
2016-09-04T02:13:52.179Z,0
2016-09-04T02:14:51.457Z,0
2016-09-04T02:15:52.110Z,0
2016-09-04T02:16:52.785Z,0
2016-09-04T02:17:52.055Z,0
2016-09-04T02:18:52.723Z,0
2016-09-04T02:19:52.685Z,0
2016-09-04T02:20:51.948Z,0
2016-09-04T02:21:52.626Z,0
2016-09-04T02:22:51.891Z,0
2016-09-04T02:23:52.559Z,0
2016-09-04T02:24:51.826Z,0
2016-09-04T02:25:52.477Z,0
2016-09-04T02:26:51.056Z,0
2016-09-04T02:27:52.418Z,0
2016-09-04T02:28:52.377Z,0
2016-09-04T02:29:50.956Z,0
2016-09-04T02:30:51.624Z,0
2016-09-04T02:31:51.581Z,0
2016-09-04T02:32:52.243Z,0
2016-09-04T02:33:51.525Z,0
2016-09-04T02:34:51.487Z,0
2016-09-04T02:35:52.148Z,0
2016-09-04T02:36:52.112Z,0
2016-09-04T02:37:50.696Z,0
2016-09-04T02:38:49.960Z,0
2016-09-04T02:39:52.013Z,0
2016-09-04T02:40:52.085Z,0
2016-09-04T02:41:51.279Z,0
2016-09-04T02:42:51.925Z,0
2016-09-04T02:43:50.494Z,0
2016-09-04T02:44:51.159Z,0
2016-09-04T02:45:50.436Z,0
2016-09-04T02:46:51.789Z,0
2016-09-04T02:47:50.351Z,0
2016-09-04T02:48:51.723Z,0
2016-09-04T02:49:51.687Z,0
2016-09-04T02:50:50.950Z,0
2016-09-04T02:51:51.613Z,0
2016-09-04T02:52:51.584Z,0
2016-09-04T02:53:50.864Z,0
2016-09-04T02:54:51.517Z,0
2016-09-04T02:55:51.483Z,0
2016-09-04T02:56:51.459Z,0
2016-09-04T02:57:51.421Z,0
2016-09-04T02:58:51.390Z,0
2016-09-04T02:59:51.355Z,0
2016-09-04T03:00:51.328Z,0
2016-09-04T03:01:49.892Z,0
2016-09-04T03:02:51.257Z,0
2016-09-04T03:03:51.218Z,0
2016-09-04T03:04:51.180Z,0
2016-09-04T03:05:50.453Z,0
2016-09-04T03:06:50.419Z,0
2016-09-04T03:07:51.087Z,0
2016-09-04T03:08:50.367Z,0
2016-09-04T03:09:51.117Z,0
2016-09-04T03:10:50.986Z,0
2016-09-04T03:11:48.862Z,0
2016-09-04T03:12:50.216Z,0
2016-09-04T03:13:48.801Z,0
2016-09-04T03:14:50.151Z,0
2016-09-04T03:15:50.126Z,0
2016-09-04T03:16:49.391Z,0
2016-09-04T03:17:50.045Z,0
2016-09-04T03:18:50.040Z,0
2016-09-04T03:19:49.989Z,0
2016-09-04T03:20:49.951Z,0
2016-09-04T03:21:50.617Z,0
2016-09-04T03:22:49.899Z,0
2016-09-04T03:23:49.860Z,0
2016-09-04T03:24:50.522Z,0
2016-09-04T03:25:50.490Z,0
2016-09-04T03:26:50.455Z,0
2016-09-04T03:27:49.721Z,0
2016-09-04T03:28:50.382Z,0
2016-09-04T03:29:48.981Z,0
2016-09-04T03:30:49.630Z,0
2016-09-04T03:31:49.594Z,0
2016-09-04T03:32:49.560Z,0
2016-09-04T03:33:49.520Z,0
2016-09-04T03:34:50.186Z,0
2016-09-04T03:35:49.519Z,0
2016-09-04T03:36:49.420Z,0
2016-09-04T03:37:49.396Z,0
2016-09-04T03:38:49.352Z,0
2016-09-04T03:39:49.327Z,0
2016-09-04T03:40:49.989Z,0
2016-09-04T03:41:49.953Z,0
2016-09-04T03:42:48.537Z,0
2016-09-04T03:43:49.887Z,0
2016-09-04T03:44:49.846Z,0
2016-09-04T03:45:49.132Z,0
2016-09-04T03:46:49.085Z,0
2016-09-04T03:47:49.752Z,0
2016-09-04T03:48:49.032Z,0
2016-09-04T03:49:48.295Z,0
2016-09-04T03:50:48.962Z,0
2016-09-04T03:51:48.938Z,0
2016-09-04T03:52:49.579Z,0
2016-09-04T03:53:48.850Z,0
2016-09-04T03:54:49.520Z,0
2016-09-04T03:55:49.478Z,0
2016-09-04T03:56:48.757Z,0
2016-09-04T03:57:48.728Z,0
2016-09-04T03:58:47.993Z,0
2016-09-04T03:59:48.661Z,0
2016-09-04T04:00:49.312Z,0
2016-09-04T04:01:48.613Z,0
2016-09-04T04:02:48.555Z,0
2016-09-04T04:03:49.214Z,0
2016-09-04T04:04:48.486Z,0
2016-09-04T04:05:48.451Z,0
2016-09-04T04:06:48.430Z,0
2016-09-04T04:07:48.387Z,0
2016-09-04T04:08:49.062Z,0
2016-09-04T04:09:49.019Z,0
2016-09-04T04:10:48.978Z,0
2016-09-04T04:11:48.254Z,0
2016-09-04T04:12:46.834Z,0
2016-09-04T04:13:47.487Z,0
2016-09-04T04:14:48.145Z,0
2016-09-04T04:15:49.022Z,0
2016-09-04T04:16:48.786Z,0
2016-09-04T04:17:48.769Z,0
2016-09-04T04:18:48.023Z,0
2016-09-04T04:19:48.683Z,0
2016-09-04T04:20:47.969Z,0
2016-09-04T04:21:48.621Z,0
2016-09-04T04:22:48.574Z,0
2016-09-04T04:23:47.158Z,0
2016-09-04T04:24:48.514Z,0
2016-09-04T04:25:48.473Z,0
2016-09-04T04:26:48.449Z,0
2016-09-04T04:27:48.423Z,0
2016-09-04T04:28:47.675Z,0
2016-09-04T04:29:48.347Z,0
2016-09-04T04:30:47.619Z,0
2016-09-04T04:31:46.194Z,0
2016-09-04T04:32:48.245Z,0
2016-09-04T04:33:48.212Z,0
2016-09-04T04:34:48.180Z,0
2016-09-04T04:35:48.141Z,0
2016-09-04T04:36:48.105Z,0
2016-09-04T04:37:47.389Z,5
2016-09-04T04:38:47.354Z,5
2016-09-04T04:39:48.013Z,5
2016-09-04T04:40:46.585Z,10
2016-09-04T04:41:46.555Z,10
2016-09-04T04:42:47.925Z,10
2016-09-04T04:43:47.876Z,10
2016-09-04T04:44:47.147Z,10
2016-09-04T04:45:47.114Z,10
2016-09-04T04:46:47.784Z,15
2016-09-04T04:47:47.041Z,15
2016-09-04T04:48:46.318Z,15
2016-09-04T04:49:46.979Z,15
2016-09-04T04:50:47.647Z,20
2016-09-04T04:51:46.916Z,20
2016-09-04T04:52:47.574Z,25
2016-09-04T04:53:46.854Z,25
2016-09-04T04:54:47.513Z,25
2016-09-04T04:55:46.780Z,25
2016-09-04T04:56:46.746Z,30
2016-09-04T04:57:47.413Z,30
2016-09-04T04:58:46.680Z,30
2016-09-04T04:59:46.650Z,35
2016-09-04T05:00:46.613Z,35
2016-09-04T05:01:45.884Z,40
2016-09-04T05:02:46.553Z,45
2016-09-04T05:03:46.526Z,45
2016-09-04T05:04:47.176Z,50
2016-09-04T05:05:45.755Z,55
2016-09-04T05:06:46.412Z,60
2016-09-04T05:07:47.079Z,65
2016-09-04T05:08:46.354Z,65
2016-09-04T05:09:46.327Z,65
2016-09-04T05:10:46.991Z,70
2016-09-04T05:11:45.553Z,75
2016-09-04T05:12:45.516Z,85
2016-09-04T05:13:46.880Z,90
2016-09-04T05:14:46.149Z,95
2016-09-04T05:15:46.126Z,100
2016-09-04T05:16:46.086Z,105
2016-09-04T05:17:46.051Z,110
2016-09-04T05:18:46.710Z,115
2016-09-04T05:19:45.982Z,120
2016-09-04T05:20:45.948Z,135
2016-09-04T05:21:46.615Z,150
2016-09-04T05:22:46.578Z,180
2016-09-04T05:23:45.853Z,220
2016-09-04T05:24:46.523Z,240
2016-09-04T05:25:46.482Z,250
2016-09-04T05:26:45.756Z,255
2016-09-04T05:27:45.724Z,255
2016-09-04T05:28:45.687Z,240
2016-09-04T05:29:46.365Z,240
2016-09-04T05:30:46.325Z,250
2016-09-04T05:31:46.283Z,255
2016-09-04T05:32:46.258Z,250
2016-09-04T05:33:45.536Z,205
2016-09-04T05:34:44.805Z,185
2016-09-04T05:35:46.171Z,210
2016-09-04T05:36:46.132Z,280
2016-09-04T05:37:44.710Z,345
2016-09-04T05:38:46.079Z,340
2016-09-04T05:39:43.960Z,330
2016-09-04T05:40:45.313Z,335
2016-09-04T05:41:43.890Z,410
2016-09-04T05:42:45.941Z,415
2016-09-04T05:43:45.928Z,425
2016-09-04T05:44:45.896Z,405
2016-09-04T05:45:44.465Z,395
2016-09-04T05:46:45.833Z,380
2016-09-04T05:47:44.399Z,325
2016-09-04T05:48:45.071Z,435
2016-09-04T05:49:45.051Z,425
2016-09-04T05:50:45.009Z,320
2016-09-04T05:51:45.689Z,235
2016-09-04T05:52:45.655Z,215
2016-09-04T05:53:44.995Z,220
2016-09-04T05:54:45.597Z,245
2016-09-04T05:55:45.568Z,270
2016-09-04T05:56:45.541Z,265
2016-09-04T05:57:45.517Z,270
2016-09-04T05:58:45.486Z,285
2016-09-04T05:59:44.773Z,295
2016-09-04T06:00:44.727Z,240
2016-09-04T06:01:44.701Z,225
2016-09-04T06:02:43.980Z,205
2016-09-04T06:03:45.354Z,195
2016-09-04T06:04:44.617Z,195
2016-09-04T06:05:43.898Z,200
2016-09-04T06:06:45.250Z,205
2016-09-04T06:07:44.542Z,190
2016-09-04T06:08:45.200Z,165
2016-09-04T06:09:44.471Z,145
2016-09-04T06:10:45.161Z,130
2016-09-04T06:11:45.126Z,130
2016-09-04T06:12:43.694Z,130
2016-09-04T06:13:45.060Z,135
2016-09-04T06:14:45.034Z,140
2016-09-04T06:15:45.010Z,150
2016-09-04T06:16:44.512Z,150
2016-09-04T06:17:44.251Z,165
2016-09-04T06:18:43.521Z,170
2016-09-04T06:19:44.883Z,180
2016-09-04T06:20:44.162Z,195
2016-09-04T06:21:44.135Z,185
2016-09-04T06:22:43.405Z,170
2016-09-04T06:23:44.776Z,175
2016-09-04T06:24:44.757Z,190
2016-09-04T06:25:43.315Z,200
2016-09-04T06:26:44.678Z,230
2016-09-04T06:27:43.253Z,225
2016-09-04T06:28:43.224Z,265
2016-09-04T06:29:43.898Z,270
2016-09-04T06:30:44.566Z,275
2016-09-04T06:31:44.530Z,255
2016-09-04T06:32:43.810Z,270
2016-09-04T06:33:43.777Z,320
2016-09-04T06:34:44.446Z,310
2016-09-04T06:35:43.020Z,295
2016-09-04T06:36:43.690Z,290
2016-09-04T06:37:44.366Z,270
2016-09-04T06:38:43.629Z,280
2016-09-04T06:39:44.293Z,315
2016-09-04T06:40:44.283Z,355
2016-09-04T06:41:44.250Z,345
2016-09-04T06:42:43.532Z,295
2016-09-04T06:43:43.497Z,285
2016-09-04T06:44:44.159Z,280
2016-09-04T06:45:44.132Z,285
2016-09-04T06:46:44.109Z,280
2016-09-04T06:47:44.062Z,255
2016-09-04T06:48:43.356Z,255
2016-09-04T06:49:41.928Z,260
2016-09-04T06:50:43.281Z,265
2016-09-04T06:51:43.958Z,315
2016-09-04T06:52:43.929Z,310
2016-09-04T06:53:43.901Z,360
2016-09-04T06:54:41.798Z,285
2016-09-04T06:55:43.147Z,265
2016-09-04T06:56:43.118Z,270
2016-09-04T06:57:43.792Z,275
2016-09-04T06:58:43.060Z,270
2016-09-04T06:59:43.040Z,285
2016-09-04T07:00:43.018Z,290
2016-09-04T07:01:42.277Z,310
2016-09-04T07:02:43.659Z,380
2016-09-04T07:03:42.932Z,555
2016-09-04T07:04:43.593Z,590
2016-09-04T07:05:41.478Z,500
2016-09-04T07:06:42.137Z,460
2016-09-04T07:07:42.814Z,530
2016-09-04T07:08:43.483Z,550
2016-09-04T07:09:43.449Z,545
2016-09-04T07:10:43.426Z,505
2016-09-04T07:11:41.312Z,410
2016-09-04T07:12:41.982Z,400
2016-09-04T07:13:42.654Z,355
2016-09-04T07:14:43.320Z,390
2016-09-04T07:15:43.288Z,335
2016-09-04T07:16:42.572Z,305
2016-09-04T07:17:43.249Z,300
2016-09-04T07:18:42.510Z,285
2016-09-04T07:19:42.493Z,280
2016-09-04T07:20:43.155Z,285
2016-09-04T07:21:41.741Z,305
2016-09-04T07:22:42.415Z,295
2016-09-04T07:23:40.985Z,280
2016-09-04T07:24:42.354Z,285
2016-09-04T07:25:43.021Z,310
2016-09-04T07:26:42.303Z,310
2016-09-04T07:27:42.970Z,310
2016-09-04T07:28:41.558Z,285
2016-09-04T07:29:42.917Z,285
2016-09-04T07:30:42.205Z,285
2016-09-04T07:31:42.167Z,265
2016-09-04T07:32:42.836Z,255
2016-09-04T07:33:42.807Z,250
2016-09-04T07:34:42.783Z,245
2016-09-04T07:35:42.762Z,240
2016-09-04T07:36:42.726Z,240
2016-09-04T07:37:42.008Z,240
2016-09-04T07:38:42.675Z,245
2016-09-04T07:39:42.642Z,245
2016-09-04T07:40:41.920Z,250
2016-09-04T07:41:41.897Z,250
2016-09-04T07:42:41.174Z,255
2016-09-04T07:43:40.456Z,260
2016-09-04T07:44:41.116Z,265
2016-09-04T07:45:41.787Z,280
2016-09-04T07:46:42.461Z,295
2016-09-04T07:47:41.732Z,310
2016-09-04T07:48:41.713Z,310
2016-09-04T07:49:41.671Z,315
2016-09-04T07:50:42.342Z,325
2016-09-04T07:51:41.646Z,340
2016-09-04T07:52:41.592Z,355
2016-09-04T07:53:42.285Z,360
2016-09-04T07:54:41.536Z,385
2016-09-04T07:55:41.509Z,405
2016-09-04T07:56:41.486Z,440
2016-09-04T07:57:41.449Z,595
2016-09-04T07:58:40.750Z,625
2016-09-04T07:59:41.400Z,660
2016-09-04T08:00:42.071Z,580
2016-09-04T08:01:42.047Z,620
2016-09-04T08:02:42.008Z,610
2016-09-04T08:03:41.991Z,550
2016-09-04T08:04:41.274Z,490
2016-09-04T08:05:41.930Z,435
2016-09-04T08:06:41.217Z,480
2016-09-04T08:07:41.186Z,505
2016-09-04T08:08:41.863Z,660
2016-09-04T08:09:41.139Z,795
2016-09-04T08:10:41.824Z,1480
2016-09-04T08:11:40.385Z,1610
2016-09-04T08:12:41.758Z,1540
2016-09-04T08:13:41.728Z,1480
2016-09-04T08:14:41.696Z,1030
2016-09-04T08:15:41.677Z,805
2016-09-04T08:16:41.648Z,825
2016-09-04T08:17:40.229Z,730
2016-09-04T08:18:41.597Z,685
2016-09-04T08:19:41.572Z,660
2016-09-04T08:20:40.853Z,620
2016-09-04T08:21:41.524Z,605
2016-09-04T08:22:41.504Z,795
2016-09-04T08:23:40.800Z,1080
2016-09-04T08:24:41.447Z,1645
2016-09-04T08:25:41.431Z,2140
2016-09-04T08:26:41.413Z,2320
2016-09-04T08:27:39.990Z,2100
2016-09-04T08:28:40.667Z,1960
2016-09-04T08:29:41.339Z,1935
2016-09-04T08:30:40.620Z,1685
2016-09-04T08:31:41.297Z,1540
2016-09-04T08:32:39.886Z,1530
2016-09-04T08:33:40.549Z,1555
2016-09-04T08:34:40.531Z,1675
2016-09-04T08:35:41.252Z,1665
2016-09-04T08:36:41.193Z,1450
2016-09-04T08:37:40.469Z,1000
2016-09-04T08:38:40.465Z,1255
2016-09-04T08:39:39.721Z,1780
2016-09-04T08:40:41.112Z,1085
2016-09-04T08:41:40.383Z,1540
2016-09-04T08:42:41.070Z,1145
2016-09-04T08:43:40.342Z,965
2016-09-04T08:44:41.022Z,1425
2016-09-04T08:45:40.323Z,1130
2016-09-04T08:46:40.288Z,900
2016-09-04T08:47:40.273Z,580
2016-09-04T08:48:40.940Z,460
2016-09-04T08:49:40.923Z,385
2016-09-04T08:50:40.901Z,340
2016-09-04T08:51:40.194Z,305
2016-09-04T08:52:40.177Z,285
2016-09-04T08:53:39.519Z,270
2016-09-04T08:54:40.123Z,260
2016-09-04T08:55:39.403Z,255
2016-09-04T08:56:40.784Z,250
2016-09-04T08:57:39.362Z,245
2016-09-04T08:58:40.040Z,240
2016-09-04T08:59:40.716Z,235
2016-09-04T09:00:39.998Z,230
2016-09-04T09:01:39.975Z,225
2016-09-04T09:02:40.657Z,225
2016-09-04T09:03:40.658Z,215
2016-09-04T09:04:40.602Z,210
2016-09-04T09:05:40.592Z,205
2016-09-04T09:06:40.554Z,210
2016-09-04T09:07:39.844Z,215
2016-09-04T09:08:39.814Z,220
2016-09-04T09:09:40.489Z,225
2016-09-04T09:10:39.769Z,235
2016-09-04T09:11:39.752Z,240
2016-09-04T09:12:40.420Z,240
2016-09-04T09:13:39.689Z,230
2016-09-04T09:14:40.364Z,230
2016-09-04T09:15:38.951Z,235
2016-09-04T09:16:39.634Z,250
2016-09-04T09:17:38.198Z,260
2016-09-04T09:18:39.573Z,280
2016-09-04T09:19:40.240Z,290
2016-09-04T09:20:39.521Z,295
2016-09-04T09:21:40.218Z,305
2016-09-04T09:22:40.166Z,315
2016-09-04T09:23:39.544Z,340
2016-09-04T09:24:40.118Z,360
2016-09-04T09:25:39.394Z,390
2016-09-04T09:26:40.068Z,425
2016-09-04T09:27:39.356Z,460
2016-09-04T09:28:39.323Z,485
2016-09-04T09:29:39.298Z,515
2016-09-04T09:30:39.272Z,525
2016-09-04T09:31:39.962Z,565
2016-09-04T09:32:39.914Z,590
2016-09-04T09:33:39.201Z,760
2016-09-04T09:34:39.181Z,770
2016-09-04T09:35:39.838Z,660
2016-09-04T09:36:37.718Z,705
2016-09-04T09:37:39.092Z,765
2016-09-04T09:38:39.067Z,810
2016-09-04T09:39:39.048Z,785
2016-09-04T09:40:39.021Z,735
2016-09-04T09:41:38.990Z,685
2016-09-04T09:42:38.976Z,630
2016-09-04T09:43:39.650Z,635
2016-09-04T09:44:39.621Z,620
2016-09-04T09:45:39.593Z,590
2016-09-04T09:46:39.568Z,570
2016-09-04T09:47:38.848Z,535
2016-09-04T09:48:39.023Z,535
2016-09-04T09:49:39.650Z,560
2016-09-04T09:50:38.767Z,565
2016-09-04T09:51:38.741Z,565
2016-09-04T09:52:38.723Z,555
2016-09-04T09:53:39.509Z,545
2016-09-04T09:54:39.367Z,530
2016-09-04T09:55:38.660Z,510
2016-09-04T09:56:39.330Z,480
2016-09-04T09:57:39.286Z,450
2016-09-04T09:58:38.572Z,415
2016-09-04T09:59:38.571Z,375
2016-09-04T10:00:38.515Z,340
2016-09-04T10:01:38.529Z,305
2016-09-04T10:02:39.169Z,280
2016-09-04T10:03:39.144Z,260
2016-09-04T10:04:39.128Z,260
2016-09-04T10:05:37.692Z,265
2016-09-04T10:06:39.069Z,270
2016-09-04T10:07:39.041Z,285
2016-09-04T10:08:37.629Z,290
2016-09-04T10:09:38.986Z,290
2016-09-04T10:10:38.968Z,310
2016-09-04T10:11:37.549Z,330
2016-09-04T10:12:38.228Z,340
2016-09-04T10:13:38.195Z,355
2016-09-04T10:14:38.165Z,395
2016-09-04T10:15:37.445Z,480
2016-09-04T10:16:37.424Z,490
2016-09-04T10:17:38.080Z,475
2016-09-04T10:18:38.755Z,475
2016-09-04T10:19:38.033Z,510
2016-09-04T10:20:38.007Z,510
2016-09-04T10:21:37.990Z,490
2016-09-04T10:22:37.968Z,495
2016-09-04T10:23:38.626Z,445
2016-09-04T10:24:38.607Z,495
2016-09-04T10:25:37.888Z,485
2016-09-04T10:26:37.163Z,405
2016-09-04T10:27:38.522Z,375
2016-09-04T10:28:38.496Z,365
2016-09-04T10:29:37.082Z,395
2016-09-04T10:30:37.768Z,520
2016-09-04T10:31:38.432Z,460
2016-09-04T10:32:38.402Z,520
2016-09-04T10:33:37.683Z,515
2016-09-04T10:34:37.673Z,515
2016-09-04T10:35:37.631Z,480
2016-09-04T10:36:37.618Z,435
2016-09-04T10:37:38.270Z,430
2016-09-04T10:38:36.872Z,430
2016-09-04T10:39:37.519Z,440
2016-09-04T10:40:38.194Z,440
2016-09-04T10:41:37.471Z,435
2016-09-04T10:42:37.444Z,445
2016-09-04T10:43:38.121Z,445
2016-09-04T10:44:36.714Z,430
2016-09-04T10:45:35.977Z,405
2016-09-04T10:46:38.051Z,390
2016-09-04T10:47:37.321Z,380
2016-09-04T10:48:36.603Z,375
2016-09-04T10:49:37.270Z,370
2016-09-04T10:50:37.933Z,375
2016-09-04T10:51:37.219Z,360
2016-09-04T10:52:36.508Z,355
2016-09-04T10:53:37.169Z,340
2016-09-04T10:54:37.145Z,325
2016-09-04T10:55:37.818Z,315
2016-09-04T10:56:37.107Z,315
2016-09-04T10:57:36.395Z,345
2016-09-04T10:58:37.738Z,370
2016-09-04T10:59:37.019Z,400
2016-09-04T11:00:36.299Z,420
2016-09-04T11:01:36.964Z,430
2016-09-04T11:02:36.938Z,435
2016-09-04T11:03:36.914Z,485
2016-09-04T11:04:37.582Z,485
2016-09-04T11:05:37.554Z,510
2016-09-04T11:06:35.445Z,530
2016-09-04T11:07:37.514Z,550
2016-09-04T11:08:37.484Z,485
2016-09-04T11:09:36.772Z,445
2016-09-04T11:10:36.734Z,410
2016-09-04T11:11:36.015Z,395
2016-09-04T11:12:37.383Z,395
2016-09-04T11:13:36.673Z,385
2016-09-04T11:14:37.335Z,360
2016-09-04T11:15:36.607Z,330
2016-09-04T11:16:37.284Z,315
2016-09-04T11:17:36.612Z,315
2016-09-04T11:18:36.550Z,315
2016-09-04T11:19:36.519Z,320
2016-09-04T11:20:36.487Z,305
2016-09-04T11:21:37.154Z,290
2016-09-04T11:22:37.136Z,275
2016-09-04T11:23:37.110Z,270
2016-09-04T11:24:36.382Z,260
2016-09-04T11:25:36.362Z,260
2016-09-04T11:26:36.333Z,270
2016-09-04T11:27:37.014Z,285
2016-09-04T11:28:35.606Z,300
2016-09-04T11:29:36.262Z,305
2016-09-04T11:30:36.939Z,315
2016-09-04T11:31:36.911Z,320
2016-09-04T11:32:35.484Z,315
2016-09-04T11:33:36.154Z,315
2016-09-04T11:34:35.449Z,320
2016-09-04T11:35:36.801Z,330
2016-09-04T11:36:36.081Z,340
2016-09-04T11:37:36.061Z,355
2016-09-04T11:38:36.026Z,355
2016-09-04T11:39:36.707Z,340
2016-09-04T11:40:35.984Z,325
2016-09-04T11:41:35.258Z,325
2016-09-04T11:42:36.626Z,335
2016-09-04T11:43:35.906Z,340
2016-09-04T11:44:36.573Z,335
2016-09-04T11:45:35.854Z,325
2016-09-04T11:46:35.821Z,325
2016-09-04T11:47:35.806Z,325
2016-09-04T11:48:36.463Z,305
2016-09-04T11:49:35.743Z,285
2016-09-04T11:50:36.438Z,275
2016-09-04T11:51:34.996Z,275
2016-09-04T11:52:36.363Z,270
2016-09-04T11:53:35.639Z,265
2016-09-04T11:54:36.311Z,260
2016-09-04T11:55:35.588Z,255
2016-09-04T11:56:36.255Z,245
2016-09-04T11:57:36.241Z,250
2016-09-04T11:58:35.505Z,240
2016-09-04T11:59:35.486Z,235
2016-09-04T12:00:35.463Z,240
2016-09-04T12:01:35.431Z,255
2016-09-04T12:02:36.103Z,270
2016-09-04T12:03:35.375Z,275
2016-09-04T12:04:34.648Z,270
2016-09-04T12:05:35.331Z,260
2016-09-04T12:06:35.992Z,235
2016-09-04T12:07:35.974Z,225
2016-09-04T12:08:35.246Z,225
2016-09-04T12:09:35.912Z,230
2016-09-04T12:10:35.204Z,250
2016-09-04T12:11:35.169Z,260
2016-09-04T12:12:34.439Z,260
2016-09-04T12:13:35.807Z,255
2016-09-04T12:14:35.085Z,240
2016-09-04T12:15:35.058Z,230
2016-09-04T12:16:35.725Z,215
2016-09-04T12:17:35.007Z,205
2016-09-04T12:18:35.689Z,215
2016-09-04T12:19:34.256Z,215
2016-09-04T12:20:34.920Z,220
2016-09-04T12:21:35.594Z,230
2016-09-04T12:22:34.878Z,245
2016-09-04T12:23:35.550Z,260
2016-09-04T12:24:35.507Z,275
2016-09-04T12:25:35.495Z,280
2016-09-04T12:26:35.461Z,280
2016-09-04T12:27:34.054Z,275
2016-09-04T12:28:34.013Z,270
2016-09-04T12:29:33.991Z,260
2016-09-04T12:30:35.356Z,255
2016-09-04T12:31:34.624Z,245
2016-09-04T12:32:34.595Z,240
2016-09-04T12:33:35.270Z,235
2016-09-04T12:34:35.244Z,230
2016-09-04T12:35:35.210Z,230
2016-09-04T12:36:34.495Z,235
2016-09-04T12:37:34.465Z,240
2016-09-04T12:38:34.433Z,245
2016-09-04T12:39:34.411Z,250
2016-09-04T12:40:34.391Z,255
2016-09-04T12:41:35.055Z,265
2016-09-04T12:42:34.342Z,265
2016-09-04T12:43:34.998Z,270
2016-09-04T12:44:34.981Z,275
2016-09-04T12:45:34.250Z,275
2016-09-04T12:46:34.231Z,280
2016-09-04T12:47:34.904Z,280
2016-09-04T12:48:34.219Z,280
2016-09-04T12:49:34.838Z,280
2016-09-04T12:50:34.116Z,280
2016-09-04T12:51:34.816Z,280
2016-09-04T12:52:33.372Z,275
2016-09-04T12:53:34.730Z,270
2016-09-04T12:54:34.013Z,270
2016-09-04T12:55:34.687Z,265
2016-09-04T12:56:33.959Z,255
2016-09-04T12:57:33.928Z,255
2016-09-04T12:58:33.211Z,250
2016-09-04T12:59:33.891Z,245
2016-09-04T13:00:33.852Z,235
2016-09-04T13:01:33.129Z,230
2016-09-04T13:02:34.494Z,225
2016-09-04T13:03:33.070Z,220
2016-09-04T13:04:33.767Z,225
2016-09-04T13:05:33.753Z,230
2016-09-04T13:06:33.705Z,220
2016-09-04T13:07:33.668Z,215
2016-09-04T13:08:32.946Z,215
2016-09-04T13:09:34.318Z,210
2016-09-04T13:10:33.589Z,205
2016-09-04T13:11:33.576Z,200
2016-09-04T13:12:34.228Z,195
2016-09-04T13:13:34.203Z,190
2016-09-04T13:14:33.490Z,190
2016-09-04T13:15:34.159Z,185
2016-09-04T13:16:34.129Z,185
2016-09-04T13:17:33.401Z,180
2016-09-04T13:18:33.378Z,185
2016-09-04T13:19:33.350Z,190
2016-09-04T13:20:34.010Z,190
2016-09-04T13:21:33.289Z,190
2016-09-04T13:22:33.275Z,185
2016-09-04T13:23:32.538Z,170
2016-09-04T13:24:33.212Z,155
2016-09-04T13:25:33.214Z,140
2016-09-04T13:26:33.165Z,135
2016-09-04T13:27:32.424Z,135
2016-09-04T13:28:33.111Z,140
2016-09-04T13:29:33.080Z,145
2016-09-04T13:30:33.053Z,150
2016-09-04T13:31:33.716Z,150
2016-09-04T13:32:33.697Z,150
2016-09-04T13:33:32.968Z,145
2016-09-04T13:34:32.242Z,145
2016-09-04T13:35:32.919Z,145
2016-09-04T13:36:32.885Z,145
2016-09-04T13:37:33.551Z,145
2016-09-04T13:38:33.070Z,150
2016-09-04T13:39:32.097Z,150
2016-09-04T13:40:32.786Z,150
2016-09-04T13:41:33.447Z,150
2016-09-04T13:42:32.717Z,150
2016-09-04T13:43:33.388Z,145
2016-09-04T13:44:31.964Z,145
2016-09-04T13:45:33.340Z,150
2016-09-04T13:46:31.917Z,165
2016-09-04T13:47:33.269Z,185
2016-09-04T13:48:32.551Z,200
2016-09-04T13:49:33.237Z,205
2016-09-04T13:50:33.205Z,210
2016-09-04T13:51:31.781Z,210
2016-09-04T13:52:31.755Z,210
2016-09-04T13:53:33.119Z,210
2016-09-04T13:54:32.405Z,205
2016-09-04T13:55:32.365Z,200
2016-09-04T13:56:33.035Z,180
2016-09-04T13:57:32.326Z,165
2016-09-04T13:58:32.984Z,150
2016-09-04T13:59:32.954Z,150
2016-09-04T14:00:32.230Z,150
2016-09-04T14:01:32.913Z,150
2016-09-04T14:02:32.177Z,145
2016-09-04T14:03:32.155Z,145
2016-09-04T14:04:32.120Z,145
2016-09-04T14:05:32.787Z,150